Time;durP1;ratioP1;P1;durP2;ratioP2;P2;SDS_P1;SDS_P2;PMS_P1;PMS_P2;Temp;Humidity;BMP_temperature;BMP_pressure;BME280_temperature;BME280_humidity;BME280_pressure;Samples;Min_cycle;Max_cycle;Signal;HPM_P1;HPM_P2
2023/06/20 00:01:57;;;;;;;22.67;21.03;;;22.00;1.00;;;;;;4970336;28;20491;-73
2023/06/20 00:04:25;;;;;;;23.57;21.77;;;22.00;1.00;;;;;;4969234;28;20472;-75
2023/06/20 00:06:55;;;;;;;21.67;20.07;;;21.90;1.00;;;;;;4970311;28;20483;-75
2023/06/20 00:09:22;;;;;;;22.87;21.17;;;21.90;1.00;;;;;;4968763;28;20547;-75
2023/06/20 00:11:50;;;;;;;24.57;22.77;;;21.90;1.00;;;;;;4968265;28;20484;-74
2023/06/20 00:14:17;;;;;;;22.40;20.60;;;21.90;1.00;;;;;;4967297;28;20550;-75
2023/06/20 00:16:47;;;;;;;23.50;21.60;;;21.90;1.00;;;;;;4974215;28;20968;-75
2023/06/20 00:19:19;;;;;;;21.83;20.20;;;21.90;1.00;;;;;;4969972;28;20934;-73
2023/06/20 00:21:47;;;;;;;23.00;21.27;;;21.80;1.00;;;;;;4960359;28;20438;-74
2023/06/20 00:24:14;;;;;;;23.27;21.47;;;21.70;1.00;;;;;;4971230;28;20462;-75
2023/06/20 00:26:41;;;;;;;23.67;21.73;;;21.70;1.00;;;;;;4970645;28;20458;-74
2023/06/20 00:29:09;;;;;;;23.00;21.40;;;21.70;1.00;;;;;;4968612;28;20443;-74
2023/06/20 00:31:37;;;;;;;23.43;21.63;;;21.70;1.00;;;;;;4972246;28;20507;-75
2023/06/20 00:34:04;;;;;;;21.10;19.50;;;21.70;1.00;;;;;;4970527;28;20610;-75
2023/06/20 00:36:31;;;;;;;23.07;21.37;;;21.80;1.00;;;;;;4970257;28;20470;-75
2023/06/20 00:38:59;;;;;;;23.83;22.10;;;21.70;1.00;;;;;;4971857;28;20557;-72
2023/06/20 00:41:26;;;;;;;24.67;22.60;;;21.80;1.00;;;;;;4964947;28;20445;-78
2023/06/20 00:43:53;;;;;;;25.10;23.13;;;21.80;1.00;;;;;;4968729;28;21277;-75
2023/06/20 00:46:23;;;;;;;22.90;21.10;;;21.70;1.00;;;;;;4970580;28;20493;-75
2023/06/20 00:48:51;;;;;;;22.90;21.10;;;21.70;1.00;;;;;;4967630;28;20489;-75
2023/06/20 00:51:20;;;;;;;23.37;21.67;;;21.70;1.00;;;;;;4971884;28;20951;-75
2023/06/20 00:53:48;;;;;;;23.17;21.40;;;21.60;1.00;;;;;;4966063;28;20562;-75
2023/06/20 00:56:16;;;;;;;23.23;21.53;;;21.60;1.00;;;;;;4967159;28;20464;-76
2023/06/20 00:58:43;;;;;;;23.03;21.23;;;21.60;1.00;;;;;;4968317;28;20482;-73
2023/06/20 01:01:10;;;;;;;22.77;20.83;;;21.50;1.00;;;;;;4967675;28;20494;-71
2023/06/20 01:03:38;;;;;;;24.80;23.00;;;21.50;1.00;;;;;;4978953;23;20455;-69
2023/06/20 01:06:13;;;;;;;25.17;23.10;;;21.50;1.00;;;;;;4969169;28;20595;-68
2023/06/20 01:08:51;;;;;;;23.43;21.63;;;21.40;1.00;;;;;;4965483;28;20621;-67
2023/06/20 01:11:29;;;;;;;23.20;21.30;;;21.40;1.00;;;;;;4965793;28;20593;-68
2023/06/20 01:14:03;;;;;;;24.27;22.47;;;21.40;1.00;;;;;;4969199;28;20460;-67
2023/06/20 01:16:37;;;;;;;23.70;21.97;;;21.40;1.00;;;;;;4968266;28;20500;-68
2023/06/20 01:19:16;;;;;;;24.57;22.80;;;21.30;1.00;;;;;;4968369;28;20546;-67
2023/06/20 01:21:47;;;;;;;22.77;21.10;;;21.30;1.00;;;;;;4965682;28;20931;-68
2023/06/20 01:24:20;;;;;;;24.30;22.20;;;21.30;1.00;;;;;;4965491;28;20546;-68
2023/06/20 01:26:53;;;;;;;26.10;23.90;;;21.30;1.00;;;;;;4969846;28;20480;-69
2023/06/20 01:29:32;;;;;;;24.80;23.00;;;21.20;1.00;;;;;;4969756;28;20464;-68
2023/06/20 01:32:02;;;;;;;25.07;23.03;;;21.10;1.00;;;;;;4966689;28;20482;-68
2023/06/20 01:34:31;;;;;;;25.63;23.63;;;21.10;1.00;;;;;;4968482;28;20913;-68
2023/06/20 01:37:00;;;;;;;22.83;21.23;;;21.10;1.00;;;;;;4965874;28;20548;-67
2023/06/20 01:39:34;;;;;;;24.50;22.63;;;21.00;1.00;;;;;;4966257;28;20831;-68
2023/06/20 01:42:04;;;;;;;24.20;22.40;;;21.00;1.00;;;;;;4968382;28;20564;-68
2023/06/20 01:44:34;;;;;;;25.37;23.40;;;21.00;1.00;;;;;;4969165;28;20546;-67
2023/06/20 01:47:03;;;;;;;24.27;22.33;;;20.90;1.00;;;;;;4967536;28;20498;-68
2023/06/20 01:49:32;;;;;;;26.00;23.80;;;20.90;1.00;;;;;;4970042;28;21009;-68
2023/06/20 01:52:00;;;;;;;25.57;23.67;;;20.80;1.00;;;;;;4966786;28;20482;-69
2023/06/20 01:54:32;;;;;;;25.83;23.63;;;20.80;1.00;;;;;;4963937;28;20589;-68
2023/06/20 01:57:01;;;;;;;27.60;25.30;;;20.70;1.00;;;;;;4969533;28;20467;-69
2023/06/20 01:59:28;;;;;;;24.17;22.33;;;20.70;1.00;;;;;;4966931;28;20449;-69
2023/06/20 02:01:57;;;;;;;25.17;23.17;;;20.70;1.00;;;;;;4962312;28;20481;-69
2023/06/20 02:04:26;;;;;;;26.20;24.03;;;20.70;1.00;;;;;;4968167;28;20507;-68
2023/06/20 02:06:54;;;;;;;24.63;22.80;;;20.60;1.00;;;;;;4964067;28;20496;-69
2023/06/20 02:09:21;;;;;;;25.90;23.97;;;20.60;1.00;;;;;;4966993;28;20524;-68
2023/06/20 02:11:50;;;;;;;25.20;23.10;;;20.60;1.00;;;;;;4965820;28;20574;-68
2023/06/20 02:14:17;;;;;;;24.00;22.13;;;20.60;1.00;;;;;;4967663;28;20975;-68
2023/06/20 02:16:45;;;;;;;26.23;24.00;;;20.60;1.00;;;;;;4964159;28;20542;-68
2023/06/20 02:19:12;;;;;;;27.13;24.70;;;20.60;1.00;;;;;;4963705;28;20481;-68
2023/06/20 02:21:43;;;;;;;26.87;24.87;;;20.50;1.00;;;;;;4970066;28;20559;-67
2023/06/20 02:24:13;;;;;;;27.40;25.23;;;20.40;1.00;;;;;;4965154;28;21020;-69
2023/06/20 02:26:44;;;;;;;25.33;23.43;;;20.50;1.00;;;;;;4965303;28;20569;-67
2023/06/20 02:29:13;;;;;;;36.80;33.63;;;20.50;1.00;;;;;;4966356;28;20515;-68
2023/06/20 02:31:44;;;;;;;25.43;23.43;;;20.50;1.00;;;;;;4968093;28;20476;-68
2023/06/20 02:34:15;;;;;;;26.97;24.87;;;20.50;1.00;;;;;;4967144;28;20468;-69
2023/06/20 02:36:44;;;;;;;26.27;24.17;;;20.40;1.00;;;;;;4967948;28;20473;-69
2023/06/20 02:39:11;;;;;;;26.50;24.40;;;20.40;1.00;;;;;;4961736;28;20495;-67
2023/06/20 02:41:41;;;;;;;27.40;25.30;;;20.40;1.00;;;;;;4966881;28;20902;-67
2023/06/20 02:44:08;;;;;;;27.40;25.00;;;20.40;1.00;;;;;;4963774;28;20475;-68
2023/06/20 02:46:43;;;;;;;27.70;25.50;;;20.40;1.00;;;;;;4968028;28;20541;-67
2023/06/20 02:49:18;;;;;;;26.20;24.20;;;20.40;1.00;;;;;;4963333;28;20996;-68
2023/06/20 02:51:57;;;;;;;27.07;24.97;;;20.50;1.00;;;;;;4969897;28;20563;-68
2023/06/20 02:54:36;;;;;;;27.07;24.87;;;20.50;1.00;;;;;;4965242;28;20467;-68
2023/06/20 02:57:06;;;;;;;27.27;25.13;;;20.50;1.00;;;;;;4964813;28;20466;-67
2023/06/20 02:59:36;;;;;;;27.30;25.10;;;20.40;1.00;;;;;;4965426;28;20474;-68
2023/06/20 03:02:08;;;;;;;25.87;23.87;;;20.50;1.00;;;;;;4964353;28;20619;-67
2023/06/20 03:04:36;;;;;;;26.00;24.07;;;20.60;1.00;;;;;;4964332;28;21028;-68
2023/06/20 03:07:05;;;;;;;26.50;24.40;;;20.60;1.00;;;;;;4970578;28;20467;-68
2023/06/20 03:09:33;;;;;;;28.03;25.53;;;20.60;1.00;;;;;;4969644;28;20457;-67
2023/06/20 03:12:00;;;;;;;28.87;26.53;;;20.60;1.00;;;;;;4972770;28;20468;-67
2023/06/20 03:14:27;;;;;;;28.50;26.07;;;20.60;1.00;;;;;;4970388;28;20460;-68
2023/06/20 03:16:54;;;;;;;27.90;25.70;;;20.60;1.00;;;;;;4972024;28;20469;-68
2023/06/20 03:19:22;;;;;;;27.17;25.17;;;20.50;1.00;;;;;;4971642;28;20517;-67
2023/06/20 03:21:50;;;;;;;28.17;25.97;;;20.50;1.00;;;;;;4971204;28;20579;-68
2023/06/20 03:24:19;;;;;;;29.23;26.63;;;20.40;1.00;;;;;;4973349;28;20545;-68
2023/06/20 03:26:50;;;;;;;28.10;25.57;;;20.50;1.00;;;;;;4970790;28;20520;-68
2023/06/20 03:29:16;;;;;;;30.07;27.57;;;20.50;1.00;;;;;;4972657;28;20867;-68
2023/06/20 03:31:43;;;;;;;30.20;27.50;;;20.50;1.00;;;;;;4971975;28;20524;-68
2023/06/20 03:34:10;;;;;;;27.77;25.57;;;20.50;1.00;;;;;;4967636;28;20458;-68
2023/06/20 03:36:39;;;;;;;28.40;26.20;;;20.40;1.00;;;;;;4969594;28;20975;-68
2023/06/20 03:39:06;;;;;;;28.10;25.80;;;20.50;1.00;;;;;;4968840;28;20488;-69
2023/06/20 03:41:32;;;;;;;29.30;27.00;;;20.60;1.00;;;;;;4966340;28;20865;-68
2023/06/20 03:43:59;;;;;;;30.13;27.70;;;20.70;1.00;;;;;;4976727;28;20609;-70
2023/06/20 03:46:26;;;;;;;30.67;27.97;;;20.70;1.00;;;;;;4973168;28;20488;-68
2023/06/20 03:48:53;;;;;;;29.77;27.23;;;20.80;1.00;;;;;;4972140;28;21069;-68
2023/06/20 03:51:20;;;;;;;28.60;26.00;;;20.90;1.00;;;;;;4974543;28;20598;-67
2023/06/20 03:53:48;;;;;;;29.27;26.87;;;20.80;1.00;;;;;;4971635;28;20486;-68
2023/06/20 03:56:15;;;;;;;28.73;26.43;;;20.80;1.00;;;;;;4971902;28;20902;-68
2023/06/20 03:58:42;;;;;;;31.30;28.73;;;20.90;1.00;;;;;;4974195;28;20518;-68
2023/06/20 04:01:09;;;;;;;58.73;53.77;;;20.90;1.00;;;;;;4969908;28;20506;-68
2023/06/20 04:03:36;;;;;;;30.23;27.77;;;21.00;1.00;;;;;;4967942;28;20573;-68
2023/06/20 04:06:03;;;;;;;29.40;27.00;;;21.10;1.00;;;;;;4971405;28;20576;-68
2023/06/20 04:08:30;;;;;;;33.47;30.77;;;21.20;1.00;;;;;;4972762;28;20454;-68
2023/06/20 04:10:58;;;;;;;28.60;26.40;;;21.20;1.00;;;;;;4970337;28;20565;-69
2023/06/20 04:13:25;;;;;;;29.83;27.53;;;21.30;1.00;;;;;;4968406;28;20477;-68
2023/06/20 04:15:52;;;;;;;30.10;27.83;;;21.40;1.00;;;;;;4970827;28;20546;-68
2023/06/20 04:18:19;;;;;;;30.60;28.20;;;21.40;1.00;;;;;;4968419;28;20489;-68
2023/06/20 04:20:46;;;;;;;29.00;26.67;;;21.50;1.00;;;;;;4970565;28;20528;-69
2023/06/20 04:23:13;;;;;;;31.83;29.17;;;21.50;1.00;;;;;;4967723;28;20531;-68
2023/06/20 04:25:40;;;;;;;31.90;29.40;;;21.50;1.00;;;;;;4968200;28;20469;-68
2023/06/20 04:28:08;;;;;;;32.37;29.43;;;21.60;1.00;;;;;;4968947;28;20466;-68
2023/06/20 04:30:35;;;;;;;30.97;28.53;;;21.60;1.00;;;;;;4966768;28;20559;-67
2023/06/20 04:33:02;;;;;;;28.87;26.47;;;21.70;1.00;;;;;;4967848;28;20464;-67
2023/06/20 04:35:29;;;;;;;30.57;28.03;;;21.70;1.00;;;;;;4968305;28;20491;-69
2023/06/20 04:38:01;;;;;;;33.73;30.97;;;21.80;1.00;;;;;;4967228;28;20838;-67
2023/06/20 04:40:28;;;;;;;32.10;29.47;;;21.90;1.00;;;;;;4963495;28;20818;-69
2023/06/20 04:42:55;;;;;;;30.07;27.47;;;22.00;1.00;;;;;;4965838;28;20544;-68
2023/06/20 04:45:24;;;;;;;30.43;27.80;;;22.10;1.00;;;;;;4968954;28;20470;-68
2023/06/20 04:47:51;;;;;;;31.87;29.23;;;22.20;1.00;;;;;;4964348;28;20461;-68
2023/06/20 04:50:18;;;;;;;30.77;28.37;;;22.30;1.00;;;;;;4968907;28;20483;-67
2023/06/20 04:52:45;;;;;;;31.23;28.63;;;22.40;1.00;;;;;;4970036;28;20564;-67
2023/06/20 04:55:12;;;;;;;29.37;26.80;;;22.40;1.00;;;;;;4969295;28;20472;-67
2023/06/20 04:57:39;;;;;;;31.50;29.00;;;22.50;1.00;;;;;;4967104;28;20571;-68
2023/06/20 05:00:12;;;;;;;28.93;26.73;;;22.50;1.00;;;;;;4965664;28;20473;-69
2023/06/20 05:02:42;;;;;;;31.27;28.87;;;22.50;1.00;;;;;;4966498;28;20475;-68
2023/06/20 05:05:09;;;;;;;29.37;27.00;;;22.60;1.00;;;;;;4965671;28;20902;-67
2023/06/20 05:07:36;;;;;;;31.40;28.70;;;22.70;1.00;;;;;;4967383;28;20515;-68
2023/06/20 05:10:04;;;;;;;31.77;28.80;;;22.70;1.00;;;;;;4968723;28;20599;-69
2023/06/20 05:12:32;;;;;;;29.83;27.43;;;22.70;1.00;;;;;;4966565;28;20472;-68
2023/06/20 05:14:59;;;;;;;32.77;30.27;;;22.60;1.00;;;;;;4968606;28;20468;-68
2023/06/20 05:17:26;;;;;;;32.43;29.73;;;22.70;1.00;;;;;;4966840;28;20464;-68
2023/06/20 05:19:55;;;;;;;31.87;28.90;;;22.70;1.00;;;;;;4969072;28;20486;-69
2023/06/20 05:22:22;;;;;;;30.83;28.07;;;22.80;1.00;;;;;;4965235;28;20493;-68
2023/06/20 05:24:49;;;;;;;32.03;29.13;;;22.80;1.00;;;;;;4963778;28;21061;-68
2023/06/20 05:27:16;;;;;;;31.57;28.70;;;22.80;1.00;;;;;;4963639;28;20461;-68
2023/06/20 05:29:43;;;;;;;30.80;27.97;;;22.80;1.00;;;;;;4967453;28;21318;-68
2023/06/20 05:32:10;;;;;;;32.00;28.90;;;22.80;1.00;;;;;;4962480;28;20838;-70
2023/06/20 05:34:38;;;;;;;33.80;30.47;;;23.00;1.00;;;;;;4967782;28;20552;-69
2023/06/20 05:37:06;;;;;;;31.27;28.63;;;23.00;1.00;;;;;;4965126;28;20454;-68
2023/06/20 05:39:33;;;;;;;34.40;31.13;;;23.00;1.00;;;;;;4970096;28;20528;-68
2023/06/20 05:42:00;;;;;;;34.17;30.73;;;23.10;1.00;;;;;;4965493;28;20487;-69
2023/06/20 05:44:27;;;;;;;33.87;30.77;;;23.10;1.00;;;;;;4968465;28;20456;-70
2023/06/20 05:46:55;;;;;;;31.73;29.07;;;23.20;1.00;;;;;;4968953;28;20473;-69
2023/06/20 05:49:22;;;;;;;31.10;28.20;;;23.30;1.00;;;;;;4967018;28;20571;-69
2023/06/20 05:51:49;;;;;;;32.83;30.13;;;23.20;1.00;;;;;;4966768;28;20481;-67
2023/06/20 05:54:17;;;;;;;33.30;30.60;;;23.30;1.00;;;;;;4969039;28;20473;-70
2023/06/20 05:56:44;;;;;;;32.87;29.40;;;23.40;1.00;;;;;;4968709;28;20539;-69
2023/06/20 05:59:11;;;;;;;32.13;29.53;;;23.40;1.00;;;;;;4970662;28;20564;-70
2023/06/20 06:01:40;;;;;;;33.10;30.30;;;23.50;1.00;;;;;;4972119;28;20541;-69
2023/06/20 06:04:07;;;;;;;30.80;28.50;;;23.50;1.00;;;;;;4969065;28;20470;-69
2023/06/20 06:06:34;;;;;;;32.37;29.47;;;23.40;1.00;;;;;;4967999;28;20896;-67
2023/06/20 06:09:01;;;;;;;31.83;29.33;;;23.30;1.00;;;;;;4969910;28;20474;-68
2023/06/20 06:11:29;;;;;;;32.77;29.90;;;23.40;1.00;;;;;;4965388;28;20549;-68
2023/06/20 06:13:56;;;;;;;30.90;28.30;;;23.40;1.00;;;;;;4966287;28;20928;-69
2023/06/20 06:16:23;;;;;;;32.93;30.03;;;23.50;1.00;;;;;;4965124;28;20560;-69
2023/06/20 06:18:50;;;;;;;32.30;29.90;;;23.60;1.00;;;;;;4964247;28;20483;-68
2023/06/20 06:21:17;;;;;;;31.70;29.10;;;23.60;1.00;;;;;;4965146;28;20547;-68
2023/06/20 06:23:44;;;;;;;36.70;33.77;;;23.70;1.00;;;;;;4966941;28;20463;-69
2023/06/20 06:26:11;;;;;;;33.00;30.50;;;23.70;1.00;;;;;;4965633;28;20462;-69
2023/06/20 06:28:40;;;;;;;33.27;30.67;;;23.70;1.00;;;;;;4966911;28;20480;-68
2023/06/20 06:31:11;;;;;;;33.30;30.73;;;23.80;1.00;;;;;;4969335;28;20949;-69
2023/06/20 06:33:39;;;;;;;32.80;30.20;;;23.80;1.00;;;;;;4967634;28;20475;-68
2023/06/20 06:36:06;;;;;;;33.57;30.90;;;23.90;1.00;;;;;;4965367;28;20974;-70
2023/06/20 06:38:34;;;;;;;32.77;29.97;;;24.00;1.00;;;;;;4963536;28;20550;-69
2023/06/20 06:41:02;;;;;;;41.63;36.60;;;24.20;1.00;;;;;;4967528;28;20475;-68
2023/06/20 06:43:30;;;;;;;37.30;33.63;;;24.30;1.00;;;;;;4966393;28;20460;-69
2023/06/20 06:45:59;;;;;;;34.00;31.20;;;24.30;1.00;;;;;;4964864;28;20907;-69
2023/06/20 06:48:26;;;;;;;34.07;31.03;;;24.50;1.00;;;;;;4965688;28;20490;-69
2023/06/20 06:50:53;;;;;;;35.10;32.00;;;24.50;1.00;;;;;;4964972;28;20889;-69
2023/06/20 06:53:20;;;;;;;33.63;30.87;;;24.50;1.00;;;;;;4965250;28;20566;-69
2023/06/20 06:55:47;;;;;;;34.67;31.87;;;24.70;1.00;;;;;;4965637;28;20469;-69
2023/06/20 06:58:14;;;;;;;43.37;34.77;;;24.70;1.00;;;;;;4962201;28;20542;-70
2023/06/20 07:00:40;;;;;;;34.67;31.63;;;24.90;1.00;;;;;;4965868;28;20817;-69
2023/06/20 07:03:10;;;;;;;34.67;31.97;;;25.00;1.00;;;;;;4966925;28;20568;-70
2023/06/20 07:05:37;;;;;;;35.00;32.07;;;25.00;1.00;;;;;;4966622;28;20490;-68
2023/06/20 07:08:05;;;;;;;33.60;30.80;;;25.10;1.00;;;;;;4966228;28;20541;-69
2023/06/20 07:10:32;;;;;;;34.90;32.17;;;25.40;1.00;;;;;;4965131;28;20475;-69
2023/06/20 07:13:00;;;;;;;33.20;30.40;;;25.90;1.00;;;;;;4966432;28;20558;-71
2023/06/20 07:15:27;;;;;;;35.00;31.90;;;26.30;1.00;;;;;;4965921;28;20474;-68
2023/06/20 07:17:54;;;;;;;32.30;29.87;;;26.70;1.00;;;;;;4964974;28;20898;-70
2023/06/20 07:20:25;;;;;;;35.57;32.63;;;26.90;1.00;;;;;;4964589;28;20979;-69
2023/06/20 07:22:52;;;;;;;34.17;31.23;;;26.90;1.00;;;;;;4968435;28;20491;-68
2023/06/20 07:25:19;;;;;;;31.33;29.03;;;26.90;1.00;;;;;;4934049;28;20465;-69
2023/06/20 07:27:46;;;;;;;31.97;29.30;;;27.00;1.00;;;;;;4967270;28;20554;-69
2023/06/20 07:30:13;;;;;;;32.80;30.30;;;26.90;1.00;;;;;;4964179;28;20495;-68
2023/06/20 07:32:40;;;;;;;33.83;31.13;;;26.90;1.00;;;;;;4964572;28;20903;-70
2023/06/20 07:35:08;;;;;;;33.50;30.70;;;27.00;1.00;;;;;;4966503;28;20548;-69
2023/06/20 07:37:36;;;;;;;33.63;31.00;;;27.10;1.00;;;;;;4964500;28;20475;-69
2023/06/20 07:40:06;;;;;;;33.50;30.70;;;27.20;1.00;;;;;;4965977;28;20453;-69
2023/06/20 07:42:33;;;;;;;31.83;29.53;;;27.20;1.00;;;;;;4967966;28;20540;-69
2023/06/20 07:45:00;;;;;;;32.93;30.03;;;27.20;1.00;;;;;;4966737;28;20462;-69
2023/06/20 07:47:26;;;;;;;35.30;32.53;;;27.40;1.00;;;;;;4965267;28;20509;-69
2023/06/20 07:49:53;;;;;;;35.38;32.58;;;27.50;1.00;;;;;;4965121;28;20510;-68
2023/06/20 07:52:21;;;;;;;32.20;29.70;;;27.60;1.00;;;;;;4966461;28;20269;-68
2023/06/20 07:54:50;;;;;;;33.33;30.80;;;27.80;1.00;;;;;;4964434;28;20462;-69
2023/06/20 07:57:17;;;;;;;32.83;30.43;;;28.00;1.00;;;;;;4966673;28;20497;-68
2023/06/20 07:59:44;;;;;;;33.70;31.10;;;28.20;1.00;;;;;;4968238;28;21013;-68
2023/06/20 08:02:10;;;;;;;34.37;31.83;;;28.40;1.00;;;;;;4969051;28;21649;-68
2023/06/20 08:04:37;;;;;;;35.63;32.70;;;28.60;1.00;;;;;;4966321;28;20915;-68
2023/06/20 08:07:04;;;;;;;34.90;32.17;;;28.60;1.00;;;;;;4969369;28;20986;-70
2023/06/20 08:09:32;;;;;;;36.67;33.80;;;28.90;1.00;;;;;;4968752;28;20860;-68
2023/06/20 08:12:00;;;;;;;33.93;31.33;;;29.10;1.00;;;;;;4969933;28;20478;-69
2023/06/20 08:14:27;;;;;;;31.57;29.10;;;29.30;1.00;;;;;;4966181;28;20467;-69
2023/06/20 08:16:54;;;;;;;35.27;32.43;;;29.40;1.00;;;;;;4966491;28;20507;-69
2023/06/20 08:19:21;;;;;;;34.60;31.90;;;29.40;1.00;;;;;;4967863;28;20555;-69
2023/06/20 08:21:48;;;;;;;34.17;31.47;;;29.40;1.00;;;;;;4969639;28;20495;-69
2023/06/20 08:24:15;;;;;;;46.77;42.50;;;29.30;1.00;;;;;;4969813;28;20491;-67
2023/06/20 08:26:42;;;;;;;34.90;32.20;;;29.10;1.00;;;;;;4971063;28;20483;-69
2023/06/20 08:29:11;;;;;;;32.00;29.50;;;29.00;1.00;;;;;;4967516;28;20454;-69
2023/06/20 08:31:38;;;;;;;31.57;29.37;;;28.90;1.00;;;;;;4966480;28;21122;-68
2023/06/20 08:34:05;;;;;;;34.03;31.53;;;28.80;1.00;;;;;;4970026;28;20475;-71
2023/06/20 08:36:33;;;;;;;33.03;30.43;;;28.50;1.00;;;;;;4968094;28;20466;-69
2023/06/20 08:39:00;;;;;;;33.63;30.97;;;28.40;1.00;;;;;;4968737;28;20459;-69
2023/06/20 08:41:28;;;;;;;30.43;28.10;;;28.30;1.00;;;;;;4966985;28;20972;-69
2023/06/20 08:43:55;;;;;;;31.20;28.80;;;28.20;1.00;;;;;;4971084;28;20480;-71
2023/06/20 08:46:24;;;;;;;32.83;30.20;;;28.10;1.00;;;;;;4966525;28;20488;-69
2023/06/20 08:48:52;;;;;;;32.27;29.97;;;28.30;1.00;;;;;;4968580;28;20457;-69
2023/06/20 08:51:22;;;;;;;32.73;30.20;;;28.40;1.00;;;;;;4968151;28;20477;-69
2023/06/20 08:53:52;;;;;;;39.10;35.73;;;28.40;1.00;;;;;;4969338;28;20845;-70
2023/06/20 08:56:20;;;;;;;34.03;30.77;;;28.50;1.00;;;;;;4970431;28;20481;-68
2023/06/20 08:58:47;;;;;;;33.57;30.97;;;28.50;1.00;;;;;;4967248;28;20490;-69
2023/06/20 09:01:14;;;;;;;33.30;30.90;;;28.50;1.00;;;;;;4970332;28;20475;-68
2023/06/20 09:03:43;;;;;;;34.90;32.30;;;28.60;1.00;;;;;;4969880;28;20878;-68
2023/06/20 09:06:11;;;;;;;33.07;30.77;;;28.70;1.00;;;;;;4965025;28;20478;-69
2023/06/20 09:08:39;;;;;;;34.20;31.37;;;28.70;1.00;;;;;;4966689;28;20509;-69
2023/06/20 09:11:08;;;;;;;33.87;31.43;;;28.70;1.00;;;;;;4968387;28;20470;-71
2023/06/20 09:13:35;;;;;;;34.07;31.07;;;28.60;1.00;;;;;;4967073;28;20459;-67
2023/06/20 09:16:07;;;;;;;34.83;32.23;;;28.50;1.00;;;;;;4969114;28;20487;-69
2023/06/20 09:18:35;;;;;;;32.53;30.17;;;28.30;1.00;;;;;;4967425;28;20452;-68
2023/06/20 09:21:04;;;;;;;34.60;31.90;;;28.00;1.00;;;;;;4967696;28;20466;-70
2023/06/20 09:23:33;;;;;;;36.23;33.23;;;27.80;1.00;;;;;;4968425;28;20449;-69
2023/06/20 09:26:15;;;;;;;35.80;33.00;;;27.40;1.00;;;;;;4968382;28;20476;-69
2023/06/20 09:28:42;;;;;;;35.57;32.63;;;26.90;1.00;;;;;;4969038;28;20590;-68
2023/06/20 09:31:09;;;;;;;36.83;34.03;;;26.50;1.00;;;;;;4966603;28;20569;-72
2023/06/20 09:33:37;;;;;;;35.93;33.33;;;26.20;1.00;;;;;;4965889;28;20541;-71
2023/06/20 09:36:16;;;;;;;37.80;34.83;;;25.80;1.00;;;;;;4965846;28;20485;-69
2023/06/20 09:38:44;;;;;;;39.97;36.87;;;25.20;1.00;;;;;;4965234;28;20441;-69
2023/06/20 09:41:16;;;;;;;35.27;32.57;;;24.40;1.00;;;;;;4970815;28;20459;-74
2023/06/20 09:43:43;;;;;;;37.10;34.20;;;23.80;1.00;;;;;;4969114;28;20467;-71
2023/06/20 09:46:10;;;;;;;36.33;33.43;;;23.50;1.00;;;;;;4966275;28;20475;-69
2023/06/20 09:48:39;;;;;;;38.20;35.10;;;23.30;1.00;;;;;;4968494;28;20484;-69
2023/06/20 09:51:07;;;;;;;34.17;31.40;;;23.30;1.00;;;;;;4966968;28;20557;-68
2023/06/20 09:53:48;;;;;;;34.13;31.30;;;23.30;1.00;;;;;;4968425;28;20811;-70
2023/06/20 09:56:15;;;;;;;38.23;34.93;;;23.20;1.00;;;;;;4966742;28;20492;-70
2023/06/20 09:58:45;;;;;;;40.47;37.07;;;23.00;1.00;;;;;;4968983;28;20499;-69
2023/06/20 10:01:14;;;;;;;42.63;38.63;;;22.70;1.00;;;;;;4966554;28;20846;-70
2023/06/20 10:03:43;;;;;;;44.00;40.10;;;22.30;1.00;;;;;;4965476;28;20479;-70
2023/06/20 10:06:10;;;;;;;41.27;37.67;;;22.20;1.00;;;;;;4967316;28;20969;-68
2023/06/20 10:08:40;;;;;;;42.20;38.60;;;22.00;1.00;;;;;;4966108;28;20456;-68
2023/06/20 10:11:08;;;;;;;40.33;36.93;;;21.90;1.00;;;;;;4964624;28;20469;-69
2023/06/20 10:13:36;;;;;;;41.67;38.27;;;21.70;1.00;;;;;;4967545;28;20490;-68
2023/06/20 10:16:05;;;;;;;40.20;36.83;;;21.50;1.00;;;;;;4964677;28;20468;-74
2023/06/20 10:18:38;;;;;;;41.50;37.40;;;21.40;1.00;;;;;;4968423;28;20464;-70
2023/06/20 10:21:14;;;;;;;44.23;40.00;;;21.30;1.00;;;;;;4969619;28;20491;-70
2023/06/20 10:23:44;;;;;;;41.80;38.13;;;21.20;1.00;;;;;;4967300;28;20864;-68
2023/06/20 10:26:12;;;;;;;44.03;40.43;;;21.10;1.00;;;;;;4966765;28;20525;-70
2023/06/20 10:28:40;;;;;;;44.67;40.60;;;21.20;1.00;;;;;;4966828;28;20496;-69
2023/06/20 10:31:07;;;;;;;42.70;39.17;;;21.20;1.00;;;;;;4966163;28;20478;-70
2023/06/20 10:33:36;;;;;;;45.33;41.00;;;21.30;1.00;;;;;;4965680;28;20470;-69
2023/06/20 10:36:06;;;;;;;44.17;40.47;;;21.20;1.00;;;;;;4967399;28;20477;-70
2023/06/20 10:38:37;;;;;;;47.50;43.50;;;21.30;1.00;;;;;;4967310;28;20464;-68
2023/06/20 10:41:11;;;;;;;49.57;45.27;;;21.30;1.00;;;;;;4947376;28;20466;-70
2023/06/20 10:43:49;;;;;;;45.93;41.93;;;21.30;1.00;;;;;;4964891;28;20470;-71
2023/06/20 10:46:16;;;;;;;45.23;40.97;;;21.40;1.00;;;;;;4964447;28;22581;-69
2023/06/20 10:48:44;;;;;;;47.60;43.30;;;21.40;1.00;;;;;;4968693;28;20475;-71
2023/06/20 10:51:12;;;;;;;44.97;41.10;;;21.40;1.00;;;;;;4966888;28;20469;-69
2023/06/20 10:53:39;;;;;;;45.23;41.07;;;21.30;1.00;;;;;;4966068;28;20513;-68
2023/06/20 10:56:06;;;;;;;47.23;42.83;;;21.30;1.00;;;;;;4964289;28;20481;-69
2023/06/20 10:58:35;;;;;;;43.07;39.20;;;21.40;1.00;;;;;;4969924;28;20565;-69
2023/06/20 11:01:02;;;;;;;45.43;41.43;;;21.30;1.00;;;;;;4965703;28;20560;-69
2023/06/20 11:03:29;;;;;;;45.83;41.83;;;21.30;1.00;;;;;;4966994;28;20498;-69
2023/06/20 11:05:56;;;;;;;47.67;43.57;;;21.40;1.00;;;;;;4968879;28;21016;-68
2023/06/20 11:08:26;;;;;;;48.23;43.63;;;21.40;1.00;;;;;;4965755;28;20469;-69
2023/06/20 11:10:54;;;;;;;46.07;42.07;;;21.50;1.00;;;;;;4967194;28;20507;-69
2023/06/20 11:13:23;;;;;;;47.97;43.60;;;21.60;1.00;;;;;;4966309;28;20617;-68
2023/06/20 11:15:51;;;;;;;50.67;45.97;;;21.60;1.00;;;;;;4965183;28;20503;-68
2023/06/20 11:18:18;;;;;;;49.27;44.67;;;21.70;1.00;;;;;;4964775;28;20546;-69
2023/06/20 11:20:46;;;;;;;44.90;41.10;;;21.80;1.00;;;;;;4962943;28;21313;-69
2023/06/20 11:23:13;;;;;;;49.53;45.10;;;21.90;1.00;;;;;;4962732;28;20486;-69
2023/06/20 11:25:43;;;;;;;47.17;43.23;;;21.90;1.00;;;;;;4963861;28;20534;-68
2023/06/20 11:28:11;;;;;;;44.50;40.70;;;22.00;1.00;;;;;;4967165;28;20955;-71
2023/06/20 11:30:40;;;;;;;42.70;39.30;;;22.10;1.00;;;;;;4969500;28;20464;-70
2023/06/20 11:33:10;;;;;;;45.70;42.07;;;22.00;1.00;;;;;;4966839;28;20529;-70
2023/06/20 11:35:49;;;;;;;47.00;42.80;;;22.10;1.00;;;;;;4968030;28;20495;-70
2023/06/20 11:38:18;;;;;;;46.33;42.20;;;22.20;1.00;;;;;;4971284;28;20464;-71
2023/06/20 11:40:46;;;;;;;46.80;42.47;;;22.20;1.00;;;;;;4971626;28;20466;-69
2023/06/20 11:43:24;;;;;;;46.53;42.43;;;22.20;1.00;;;;;;4968603;28;20466;-73
2023/06/20 11:45:51;;;;;;;44.37;40.87;;;22.20;1.00;;;;;;4968636;28;20469;-70
2023/06/20 11:48:20;;;;;;;44.10;40.40;;;22.20;1.00;;;;;;4972391;28;20479;-70
2023/06/20 11:50:56;;;;;;;45.27;41.53;;;22.20;1.00;;;;;;4971434;28;20996;-71
2023/06/20 11:53:26;;;;;;;43.33;39.83;;;22.20;1.00;;;;;;4970235;28;20476;-71
2023/06/20 11:55:55;;;;;;;45.50;41.90;;;22.20;1.00;;;;;;4970660;28;20468;-68
2023/06/20 11:58:22;;;;;;;45.03;41.20;;;22.30;1.00;;;;;;4969646;28;20493;-68
2023/06/20 12:01:09;;;;;;;42.50;39.00;;;22.30;1.00;;;;;;4970195;28;20519;-68
2023/06/20 12:03:38;;;;;;;46.70;42.90;;;22.30;1.00;;;;;;4966685;28;20459;-68
2023/06/20 12:06:30;;;;;;;43.17;39.67;;;22.30;1.00;;;;;;4967462;28;20993;-69
2023/06/20 12:08:58;;;;;;;44.53;40.83;;;22.40;1.00;;;;;;4968736;28;20453;-68
2023/06/20 12:11:26;;;;;;;45.23;41.53;;;22.50;1.00;;;;;;4969536;28;20475;-68
2023/06/20 12:13:59;;;;;;;43.03;39.23;;;22.60;1.00;;;;;;4960076;28;20892;-70
2023/06/20 12:16:26;;;;;;;41.37;38.10;;;22.70;1.00;;;;;;4967971;28;20976;-68
2023/06/20 12:18:59;;;;;;;43.77;40.13;;;22.70;1.00;;;;;;4972106;28;20457;-69
2023/06/20 12:21:26;;;;;;;43.40;39.23;;;22.80;1.00;;;;;;4971744;28;20465;-69
2023/06/20 12:23:53;;;;;;;40.37;36.97;;;23.20;1.00;;;;;;4972143;28;20465;-68
2023/06/20 12:26:20;;;;;;;39.50;36.17;;;23.90;1.00;;;;;;4966149;28;20608;-69
2023/06/20 12:28:47;;;;;;;38.30;35.20;;;24.90;1.00;;;;;;4970705;28;20620;-71
2023/06/20 12:31:14;;;;;;;38.47;35.27;;;25.80;1.00;;;;;;4968608;28;20474;-69
2023/06/20 12:33:42;;;;;;;34.73;31.83;;;26.40;1.00;;;;;;4971998;28;20503;-69
2023/06/20 12:36:15;;;;;;;34.30;31.60;;;27.90;1.00;;;;;;4965719;28;20566;-71
2023/06/20 12:38:42;;;;;;;33.40;30.70;;;30.30;1.00;;;;;;4968644;28;20474;-70
2023/06/20 12:41:11;;;;;;;31.60;29.30;;;32.20;1.00;;;;;;4966678;28;20475;-73
2023/06/20 12:43:38;;;;;;;30.07;28.00;;;34.00;1.00;;;;;;4966613;28;20500;-69